Time;durP1;ratioP1;P1;durP2;ratioP2;P2;SDS_P1;SDS_P2;PMS_P1;PMS_P2;Temp;Humidity;BMP_temperature;BMP_pressure;BME280_temperature;BME280_humidity;BME280_pressure;Samples;Min_cycle;Max_cycle;Signal;HPM_P1;HPM_P2
2021/04/05 00:00:55;;;;;;;11.27;10.17;;;4.60;99.90;;;;;;5081061;28;20442;-70
2021/04/05 00:03:22;;;;;;;11.90;10.03;;;4.70;99.90;;;;;;5080900;28;20509;-70
2021/04/05 00:05:48;;;;;;;14.53;9.80;;;4.80;99.90;;;;;;5073211;28;20617;-70
2021/04/05 00:08:15;;;;;;;14.60;9.43;;;4.80;99.90;;;;;;5072114;28;20596;-70
2021/04/05 00:10:45;;;;;;;14.13;10.40;;;4.80;99.90;;;;;;5072234;28;20443;-69
2021/04/05 00:13:14;;;;;;;15.03;9.40;;;4.70;99.90;;;;;;5072168;28;20512;-69
2021/04/05 00:15:42;;;;;;;11.97;9.53;;;4.70;99.90;;;;;;5072010;28;20485;-70
2021/04/05 00:18:09;;;;;;;13.97;9.50;;;4.80;99.90;;;;;;5071810;28;20457;-72
2021/04/05 00:20:38;;;;;;;12.37;9.07;;;4.70;99.90;;;;;;5071872;28;20534;-70
2021/04/05 00:23:05;;;;;;;10.80;9.43;;;4.70;99.90;;;;;;5071557;28;20535;-70
2021/04/05 00:25:32;;;;;;;15.40;9.90;;;4.70;99.90;;;;;;5071561;28;20747;-70
2021/04/05 00:28:00;;;;;;;13.37;10.30;;;4.70;99.90;;;;;;5072248;28;21019;-70
2021/04/05 00:30:31;;;;;;;13.57;9.73;;;4.60;99.90;;;;;;5072422;28;20982;-69
2021/04/05 00:32:58;;;;;;;11.13;8.83;;;4.40;99.90;;;;;;5076806;28;20518;-70
2021/04/05 00:35:26;;;;;;;11.33;9.13;;;4.40;99.90;;;;;;5072533;28;20519;-70
2021/04/05 00:37:53;;;;;;;14.27;9.37;;;4.40;99.90;;;;;;5071490;28;20864;-70
2021/04/05 00:40:22;;;;;;;11.27;9.13;;;4.30;99.90;;;;;;5071839;28;20483;-70
2021/04/05 00:42:49;;;;;;;16.00;8.83;;;4.30;99.90;;;;;;5071422;28;20568;-70
2021/04/05 00:45:17;;;;;;;10.70;9.10;;;4.20;99.90;;;;;;5071286;28;20578;-70
2021/04/05 00:47:45;;;;;;;16.80;11.00;;;4.30;99.90;;;;;;5071501;28;20536;-70
2021/04/05 00:50:15;;;;;;;12.63;10.73;;;4.30;99.90;;;;;;5071158;28;20450;-70
2021/04/05 00:52:41;;;;;;;14.37;9.70;;;4.30;99.90;;;;;;5070945;28;20543;-69
2021/04/05 00:55:09;;;;;;;15.00;10.47;;;4.20;99.90;;;;;;5065252;28;20523;-70
2021/04/05 00:57:36;;;;;;;11.93;9.23;;;4.20;99.90;;;;;;5073099;28;20447;-70
2021/04/05 01:00:06;;;;;;;12.87;10.47;;;4.10;99.90;;;;;;5073855;28;20474;-69
2021/04/05 01:02:35;;;;;;;15.07;10.20;;;4.00;99.90;;;;;;5090459;22;20574;-68
2021/04/05 01:05:01;;;;;;;14.33;11.30;;;4.00;99.90;;;;;;5071689;28;20479;-68
2021/04/05 01:07:29;;;;;;;14.90;9.33;;;3.80;99.90;;;;;;5063772;28;20530;-68
2021/04/05 01:09:55;;;;;;;16.03;10.20;;;3.80;99.90;;;;;;5054926;28;20546;-68
2021/04/05 01:12:22;;;;;;;13.67;10.00;;;3.70;99.90;;;;;;5063495;28;20538;-68
2021/04/05 01:14:48;;;;;;;11.80;9.93;;;3.60;99.90;;;;;;5058948;28;20526;-68
2021/04/05 01:17:14;;;;;;;12.80;10.53;;;3.70;99.90;;;;;;5055557;28;20530;-68
2021/04/05 01:19:41;;;;;;;14.30;9.17;;;3.70;99.90;;;;;;5070525;28;20482;-68
2021/04/05 01:22:08;;;;;;;11.70;7.63;;;3.80;99.90;;;;;;5068565;28;20516;-68
2021/04/05 01:24:35;;;;;;;12.27;8.57;;;4.00;99.90;;;;;;5065346;28;20478;-68
2021/04/05 01:27:01;;;;;;;12.40;7.63;;;4.20;99.90;;;;;;5066355;28;20444;-68
2021/04/05 01:29:28;;;;;;;13.07;8.57;;;4.30;99.90;;;;;;5066043;28;20542;-68
2021/04/05 01:31:54;;;;;;;14.70;9.20;;;4.40;99.90;;;;;;5069630;28;20927;-68
2021/04/05 01:34:21;;;;;;;14.83;9.30;;;4.30;99.90;;;;;;5063879;28;20467;-68
2021/04/05 01:36:48;;;;;;;10.57;8.30;;;4.20;99.90;;;;;;5059351;28;20450;-68
2021/04/05 01:39:15;;;;;;;14.47;10.10;;;4.10;99.90;;;;;;5070863;28;20529;-68
2021/04/05 01:41:41;;;;;;;11.13;9.97;;;3.90;99.90;;;;;;5070542;28;20463;-68
2021/04/05 01:44:08;;;;;;;14.60;9.20;;;3.80;99.90;;;;;;5070516;28;20467;-68
2021/04/05 01:46:34;;;;;;;11.50;8.37;;;3.70;99.90;;;;;;5070442;28;20926;-68
2021/04/05 01:49:01;;;;;;;12.83;9.20;;;3.70;99.90;;;;;;5070166;28;20478;-68
2021/04/05 01:51:28;;;;;;;14.27;10.23;;;3.70;99.90;;;;;;5070220;28;20491;-68
2021/04/05 01:53:56;;;;;;;11.23;8.70;;;3.60;99.90;;;;;;5070450;28;20935;-68
2021/04/05 01:56:24;;;;;;;16.17;9.67;;;3.60;99.90;;;;;;5069837;28;20523;-68
2021/04/05 01:58:52;;;;;;;11.30;9.17;;;3.60;99.90;;;;;;5070234;28;20474;-68
2021/04/05 02:01:22;;;;;;;10.50;9.10;;;3.60;99.90;;;;;;5052454;28;20985;-68
2021/04/05 02:03:49;;;;;;;12.03;8.07;;;3.70;99.90;;;;;;5050037;28;20433;-68
2021/04/05 02:06:20;;;;;;;12.13;8.10;;;3.90;99.90;;;;;;5050539;28;20466;-68
2021/04/05 02:08:47;;;;;;;10.60;7.37;;;3.90;99.90;;;;;;5050303;28;20906;-68
2021/04/05 02:11:16;;;;;;;10.47;7.40;;;4.10;99.90;;;;;;5050294;28;20530;-68
2021/04/05 02:13:45;;;;;;;12.10;8.33;;;4.10;99.90;;;;;;5049985;28;20518;-69
2021/04/05 02:16:14;;;;;;;9.60;7.47;;;4.20;99.90;;;;;;5050400;28;20864;-68
2021/04/05 02:18:40;;;;;;;13.13;7.00;;;4.20;99.90;;;;;;5050241;28;20469;-68
2021/04/05 02:21:10;;;;;;;10.27;7.87;;;4.30;99.90;;;;;;5050143;28;20491;-68
2021/04/05 02:23:37;;;;;;;10.33;6.70;;;4.40;99.90;;;;;;5050001;28;20531;-68
2021/04/05 02:26:07;;;;;;;10.40;7.83;;;4.50;99.90;;;;;;5049912;28;20482;-68
2021/04/05 02:28:34;;;;;;;9.00;6.80;;;4.60;99.90;;;;;;5049942;28;20435;-68
2021/04/05 02:31:03;;;;;;;9.63;6.90;;;4.70;99.90;;;;;;5050430;28;20554;-68
2021/04/05 02:33:29;;;;;;;11.50;7.27;;;4.80;99.90;;;;;;5049980;28;20940;-68
2021/04/05 02:35:56;;;;;;;8.30;6.70;;;4.90;99.90;;;;;;5050194;28;20525;-68
2021/04/05 02:38:23;;;;;;;15.57;7.00;;;5.00;99.90;;;;;;5049878;28;20534;-68
2021/04/05 02:40:49;;;;;;;8.97;6.50;;;5.00;99.90;;;;;;5049750;28;20547;-69
2021/04/05 02:43:17;;;;;;;14.40;7.40;;;5.00;99.90;;;;;;5049838;28;20443;-68
2021/04/05 02:45:44;;;;;;;10.43;7.53;;;4.90;99.90;;;;;;5050071;28;20518;-68
2021/04/05 02:48:13;;;;;;;14.20;7.40;;;4.90;99.90;;;;;;5057476;28;20466;-68
2021/04/05 02:50:40;;;;;;;10.70;6.53;;;4.90;99.90;;;;;;5053271;28;21020;-68
2021/04/05 02:53:08;;;;;;;11.27;6.90;;;5.00;99.90;;;;;;5049946;28;20887;-68
2021/04/05 02:55:35;;;;;;;10.30;6.73;;;5.10;99.90;;;;;;5050050;28;21023;-68
2021/04/05 02:58:05;;;;;;;7.70;6.37;;;5.00;99.90;;;;;;5049877;28;20527;-68
2021/04/05 03:00:32;;;;;;;11.30;7.40;;;5.00;99.90;;;;;;5049644;28;20495;-68
2021/04/05 03:02:59;;;;;;;9.13;7.00;;;4.90;99.90;;;;;;5049786;28;20456;-68
2021/04/05 03:05:29;;;;;;;7.83;6.80;;;4.80;99.90;;;;;;5049685;28;20562;-68
2021/04/05 03:07:56;;;;;;;9.30;6.23;;;4.80;99.90;;;;;;5051304;28;20482;-69
2021/04/05 03:10:25;;;;;;;14.17;7.60;;;4.80;99.90;;;;;;5053282;28;20533;-68
2021/04/05 03:12:55;;;;;;;12.50;7.77;;;4.70;99.90;;;;;;5052932;28;20448;-68
2021/04/05 03:15:24;;;;;;;10.07;7.50;;;4.60;99.90;;;;;;5053590;28;20464;-68
2021/04/05 03:17:55;;;;;;;8.47;6.70;;;4.60;99.90;;;;;;5053479;28;20482;-68
2021/04/05 03:20:23;;;;;;;9.77;8.30;;;4.40;99.90;;;;;;5053189;28;20500;-68
2021/04/05 03:22:51;;;;;;;10.93;7.60;;;4.40;99.90;;;;;;5053397;28;20456;-67
2021/04/05 03:25:19;;;;;;;9.17;7.00;;;4.30;99.90;;;;;;5059575;28;20506;-69
2021/04/05 03:27:46;;;;;;;9.10;7.30;;;4.30;99.90;;;;;;5062707;28;20521;-68
2021/04/05 03:30:15;;;;;;;10.03;6.77;;;4.30;99.90;;;;;;5052832;28;20491;-67
2021/04/05 03:32:44;;;;;;;8.50;6.80;;;4.30;99.90;;;;;;5052481;28;20479;-68
2021/04/05 03:35:15;;;;;;;11.50;6.33;;;4.20;99.90;;;;;;5052824;28;20478;-68
2021/04/05 03:37:44;;;;;;;9.93;6.93;;;4.20;99.90;;;;;;5052728;28;20539;-68
2021/04/05 03:40:14;;;;;;;10.70;6.97;;;4.20;99.90;;;;;;5059930;28;20475;-67
2021/04/05 03:42:44;;;;;;;10.17;6.60;;;4.30;99.90;;;;;;5069514;28;20443;-68
2021/04/05 03:45:20;;;;;;;10.43;6.70;;;4.30;99.90;;;;;;5072062;28;20571;-68
2021/04/05 03:47:55;;;;;;;9.67;6.60;;;4.40;99.90;;;;;;5067414;28;20492;-68
2021/04/05 03:50:25;;;;;;;11.87;7.47;;;4.50;99.90;;;;;;5063793;28;20459;-68
2021/04/05 03:52:58;;;;;;;9.30;6.90;;;4.50;99.90;;;;;;5065926;28;20858;-68
2021/04/05 03:55:28;;;;;;;8.83;6.17;;;4.50;99.90;;;;;;5052229;28;20921;-68
2021/04/05 03:57:58;;;;;;;8.43;5.90;;;4.50;99.90;;;;;;5052169;28;20818;-68
2021/04/05 04:00:28;;;;;;;15.83;6.90;;;4.60;99.90;;;;;;5052425;28;20551;-68
2021/04/05 04:02:55;;;;;;;11.00;6.57;;;4.50;99.90;;;;;;5051962;28;20576;-68
2021/04/05 04:05:27;;;;;;;8.70;6.80;;;4.60;99.90;;;;;;5052250;28;20519;-68
2021/04/05 04:08:03;;;;;;;8.77;7.30;;;4.60;99.90;;;;;;5052170;28;20574;-68
2021/04/05 04:10:33;;;;;;;8.03;7.10;;;4.50;99.90;;;;;;5051989;28;20468;-68
2021/04/05 04:13:04;;;;;;;8.50;7.50;;;4.50;99.90;;;;;;5065068;28;20473;-68
2021/04/05 04:15:32;;;;;;;9.60;6.87;;;4.50;99.90;;;;;;5065918;28;20500;-68
2021/04/05 04:18:01;;;;;;;12.03;7.53;;;4.50;99.90;;;;;;5071908;28;20475;-68
2021/04/05 04:20:29;;;;;;;11.97;6.30;;;4.50;99.90;;;;;;5071377;28;20463;-67
2021/04/05 04:22:56;;;;;;;10.70;6.80;;;4.50;99.90;;;;;;5071819;28;20470;-68
2021/04/05 04:25:23;;;;;;;13.23;6.17;;;4.60;99.90;;;;;;5071820;28;20994;-68
2021/04/05 04:27:50;;;;;;;8.27;6.67;;;4.60;99.90;;;;;;5071857;28;20470;-69
2021/04/05 04:30:31;;;;;;;8.40;6.73;;;4.60;99.90;;;;;;5072210;28;20506;-68
2021/04/05 04:33:02;;;;;;;11.10;7.00;;;4.50;99.90;;;;;;5071256;28;20860;-68
2021/04/05 04:35:30;;;;;;;13.47;7.30;;;4.50;99.90;;;;;;5055041;28;20847;-68
2021/04/05 04:37:56;;;;;;;9.80;6.43;;;4.60;99.90;;;;;;5071616;28;20568;-68
2021/04/05 04:40:24;;;;;;;11.37;6.47;;;4.60;99.90;;;;;;5063331;28;20470;-68
2021/04/05 04:42:51;;;;;;;10.60;6.97;;;4.60;99.90;;;;;;5070397;28;20518;-67
2021/04/05 04:45:18;;;;;;;10.63;7.50;;;4.60;99.90;;;;;;5053200;28;20555;-68
2021/04/05 04:47:45;;;;;;;10.50;6.30;;;4.60;99.90;;;;;;5050939;28;20586;-68
2021/04/05 04:50:15;;;;;;;9.50;6.10;;;4.60;99.90;;;;;;5051190;28;21018;-68
2021/04/05 04:52:42;;;;;;;9.20;6.13;;;4.70;99.90;;;;;;5050755;28;20447;-68
2021/04/05 04:55:10;;;;;;;7.47;5.93;;;4.60;99.90;;;;;;5051357;28;20650;-68
2021/04/05 04:57:36;;;;;;;11.43;7.47;;;4.70;99.90;;;;;;5051043;28;20526;-68
2021/04/05 05:00:05;;;;;;;10.07;6.30;;;4.70;99.90;;;;;;5050723;28;20475;-68
2021/04/05 05:02:32;;;;;;;9.70;6.53;;;4.60;99.90;;;;;;5066919;28;20589;-68
2021/04/05 05:05:00;;;;;;;10.23;7.17;;;4.70;99.90;;;;;;5070686;28;21151;-68
2021/04/05 05:07:28;;;;;;;8.10;6.87;;;4.60;99.90;;;;;;5070751;28;20446;-68
2021/04/05 05:09:55;;;;;;;12.40;7.10;;;4.60;99.90;;;;;;5070830;28;20484;-68
2021/04/05 05:12:22;;;;;;;13.50;5.30;;;4.60;99.90;;;;;;5070722;28;20478;-68
2021/04/05 05:14:49;;;;;;;8.83;6.83;;;4.60;99.90;;;;;;5070976;28;20860;-68
2021/04/05 05:17:17;;;;;;;8.63;5.60;;;4.60;99.90;;;;;;5072173;28;20486;-68
2021/04/05 05:19:44;;;;;;;6.17;5.57;;;4.80;99.90;;;;;;5086421;28;20439;-69
2021/04/05 05:22:15;;;;;;;11.00;6.27;;;4.80;99.90;;;;;;5070570;28;20510;-68
2021/04/05 05:24:44;;;;;;;10.13;5.97;;;4.90;99.90;;;;;;5069930;28;20463;-68
2021/04/05 05:27:11;;;;;;;15.07;5.93;;;5.00;99.90;;;;;;5070525;28;20474;-68
2021/04/05 05:29:39;;;;;;;10.93;6.10;;;5.10;99.90;;;;;;5070021;28;20827;-68
2021/04/05 05:32:07;;;;;;;9.50;6.67;;;5.20;99.90;;;;;;5069438;28;20585;-68
2021/04/05 05:34:34;;;;;;;7.50;6.03;;;5.30;99.90;;;;;;5070279;28;20850;-68
2021/04/05 05:37:02;;;;;;;10.03;6.13;;;5.30;99.90;;;;;;5070080;28;20518;-68
2021/04/05 05:39:29;;;;;;;12.20;5.83;;;5.40;99.90;;;;;;5070243;28;20462;-68
2021/04/05 05:42:03;;;;;;;8.40;5.73;;;5.50;99.90;;;;;;5069858;28;20501;-68
2021/04/05 05:44:40;;;;;;;9.43;6.13;;;5.60;99.90;;;;;;5069842;28;20583;-68
2021/04/05 05:47:13;;;;;;;13.37;6.70;;;5.70;99.90;;;;;;5070101;28;21132;-68
2021/04/05 05:49:49;;;;;;;10.13;6.70;;;5.80;99.90;;;;;;5069977;28;20960;-68
2021/04/05 05:52:41;;;;;;;7.07;5.20;;;5.90;99.90;;;;;;5069854;28;20430;-68
2021/04/05 05:55:52;;;;;;;12.67;6.73;;;5.90;99.90;;;;;;5070910;28;20416;-69
2021/04/05 05:58:29;;;;;;;9.27;6.10;;;6.10;99.90;;;;;;4987992;28;20471;-69
2021/04/05 06:01:04;;;;;;;7.87;5.60;;;6.10;99.90;;;;;;5064286;28;20293;-68
2021/04/05 06:03:35;;;;;;;6.93;4.80;;;6.20;99.90;;;;;;5069906;28;20858;-68
2021/04/05 06:06:16;;;;;;;10.83;6.50;;;6.30;99.90;;;;;;5070060;28;20466;-68
2021/04/05 06:08:59;;;;;;;10.80;5.60;;;6.30;99.90;;;;;;5069767;28;20439;-68
2021/04/05 06:11:41;;;;;;;9.50;5.67;;;6.40;99.90;;;;;;5069787;28;20494;-68
2021/04/05 06:14:18;;;;;;;6.47;5.47;;;6.50;99.90;;;;;;5069914;28;20862;-68
2021/04/05 06:16:52;;;;;;;9.50;5.73;;;6.60;99.90;;;;;;5069790;28;20534;-68
2021/04/05 06:19:33;;;;;;;9.43;6.77;;;6.70;99.90;;;;;;5070028;28;20565;-68
2021/04/05 06:22:08;;;;;;;14.80;6.07;;;6.80;99.90;;;;;;5069566;28;20491;-68
2021/04/05 06:24:45;;;;;;;9.13;6.40;;;6.90;99.90;;;;;;5069396;28;20510;-68
2021/04/05 06:27:16;;;;;;;7.17;5.73;;;6.90;99.90;;;;;;5069750;28;20522;-68
2021/04/05 06:30:01;;;;;;;8.40;6.47;;;7.00;99.90;;;;;;5069790;28;20859;-68
2021/04/05 06:32:38;;;;;;;12.80;6.57;;;7.10;99.90;;;;;;5069623;28;20454;-68
2021/04/05 06:35:18;;;;;;;6.97;5.50;;;7.20;99.90;;;;;;5069585;28;20474;-69
2021/04/05 06:37:49;;;;;;;16.23;6.10;;;7.30;99.90;;;;;;5069757;28;20482;-68
2021/04/05 06:40:18;;;;;;;6.63;5.87;;;7.40;99.90;;;;;;5069337;28;20547;-68
2021/04/05 06:43:16;;;;;;;10.30;6.73;;;7.50;99.90;;;;;;5071062;28;20535;-68
2021/04/05 06:46:04;;;;;;;7.63;5.33;;;7.60;99.90;;;;;;5045131;28;20912;-68
2021/04/05 06:48:58;;;;;;;7.33;5.90;;;7.80;99.90;;;;;;5060515;28;20993;-68
2021/04/05 06:51:48;;;;;;;9.20;5.40;;;7.90;99.90;;;;;;5073186;28;20471;-68
2021/04/05 06:55:01;;;;;;;8.73;5.77;;;8.10;99.90;;;;;;5072947;28;20419;-70
2021/04/05 06:57:42;;;;;;;8.50;5.73;;;8.20;99.90;;;;;;5055998;28;20506;-68
2021/04/05 07:00:13;;;;;;;8.27;5.60;;;8.30;99.90;;;;;;5057893;28;20443;-68
2021/04/05 07:03:35;;;;;;;9.47;7.03;;;8.40;99.90;;;;;;5063284;28;20494;-68
2021/04/05 07:06:17;;;;;;;6.90;5.57;;;8.50;99.90;;;;;;4982629;28;20557;-68
2021/04/05 07:09:01;;;;;;;6.70;5.10;;;8.70;99.90;;;;;;4991313;28;20574;-69
2021/04/05 07:11:37;;;;;;;10.43;5.80;;;8.90;99.90;;;;;;5042213;28;20490;-68
2021/04/05 07:14:13;;;;;;;11.60;6.23;;;9.00;99.90;;;;;;5059291;28;20510;-68
2021/04/05 07:16:51;;;;;;;7.73;5.87;;;9.20;99.90;;;;;;5064119;28;20958;-68
2021/04/05 07:19:34;;;;;;;6.43;5.57;;;9.40;99.90;;;;;;5053282;28;20464;-69
2021/04/05 07:22:11;;;;;;;9.90;5.67;;;9.50;99.90;;;;;;5067875;28;20464;-68
2021/04/05 07:24:48;;;;;;;10.03;5.53;;;9.60;99.90;;;;;;5054540;28;20470;-68
2021/04/05 07:27:20;;;;;;;7.27;5.23;;;9.60;99.00;;;;;;5060271;28;21003;-69
2021/04/05 07:29:54;;;;;;;7.00;4.93;;;9.60;98.90;;;;;;5072415;28;20933;-69
2021/04/05 07:32:29;;;;;;;8.67;5.73;;;9.70;98.00;;;;;;5073098;28;20797;-69
2021/04/05 07:35:03;;;;;;;10.33;5.30;;;9.70;97.70;;;;;;5072941;28;20439;-68
2021/04/05 07:37:43;;;;;;;9.20;5.60;;;9.70;97.80;;;;;;5072534;28;20480;-68
2021/04/05 07:40:22;;;;;;;9.23;5.93;;;9.60;97.90;;;;;;5072967;28;20478;-69
2021/04/05 07:42:58;;;;;;;10.20;6.50;;;9.60;99.30;;;;;;5072547;28;20518;-68
2021/04/05 07:45:35;;;;;;;10.13;6.50;;;9.60;99.70;;;;;;5072891;28;20494;-68
2021/04/05 07:48:11;;;;;;;6.37;5.63;;;9.70;99.90;;;;;;5072485;28;20525;-69
2021/04/05 07:50:42;;;;;;;12.80;6.60;;;9.80;99.90;;;;;;5072144;28;20467;-68
2021/04/05 07:53:17;;;;;;;12.50;6.43;;;9.90;99.90;;;;;;5072144;28;20462;-68
2021/04/05 07:55:47;;;;;;;10.30;6.13;;;10.00;99.90;;;;;;5071889;28;20427;-68
2021/04/05 07:58:21;;;;;;;11.93;5.83;;;10.20;99.90;;;;;;5072208;28;20827;-69
2021/04/05 08:00:59;;;;;;;14.50;6.90;;;10.50;99.30;;;;;;5072323;28;20541;-69
2021/04/05 08:03:45;;;;;;;11.13;5.93;;;10.80;97.50;;;;;;5072027;28;20455;-69
2021/04/05 08:06:15;;;;;;;10.07;6.10;;;10.90;97.30;;;;;;5072176;28;21009;-69
2021/04/05 08:08:48;;;;;;;10.20;6.10;;;11.20;97.90;;;;;;5072531;28;20505;-69
2021/04/05 08:11:50;;;;;;;10.47;5.57;;;11.40;97.20;;;;;;5072273;28;20471;-69
2021/04/05 08:14:28;;;;;;;8.50;5.53;;;11.70;95.20;;;;;;5039613;28;21010;-69
2021/04/05 08:17:04;;;;;;;9.30;5.97;;;12.10;95.10;;;;;;5072460;28;20469;-69
2021/04/05 08:19:44;;;;;;;7.07;5.30;;;12.40;94.00;;;;;;5071843;28;21034;-69
2021/04/05 08:22:19;;;;;;;10.30;6.30;;;12.70;92.70;;;;;;5072066;28;20467;-69
2021/04/05 08:24:56;;;;;;;7.80;5.13;;;12.90;91.80;;;;;;5071778;28;20558;-68
2021/04/05 08:27:28;;;;;;;8.67;5.03;;;13.20;92.20;;;;;;5071575;28;20442;-68
2021/04/05 08:30:01;;;;;;;9.00;5.33;;;13.60;91.20;;;;;;5071478;28;20435;-68
2021/04/05 08:32:42;;;;;;;7.87;5.37;;;14.10;87.60;;;;;;5071368;28;20960;-69
2021/04/05 08:38:00;;;;;;;7.50;6.13;;;14.20;87.30;;;;;;5063906;22;20539;-74
2021/04/05 08:40:31;;;;;;;8.03;5.23;;;14.20;85.60;;;;;;5039478;28;20524;-72
2021/04/05 08:43:09;;;;;;;7.00;4.30;;;14.10;86.70;;;;;;5033123;28;20548;-72
2021/04/05 08:45:44;;;;;;;8.57;4.30;;;13.90;83.30;;;;;;5050410;28;20475;-70
2021/04/05 08:48:13;;;;;;;10.67;5.77;;;13.70;82.50;;;;;;5051161;28;20440;-69
2021/04/05 08:50:43;;;;;;;12.57;4.77;;;13.60;86.20;;;;;;5041774;28;20540;-70
2021/04/05 08:53:11;;;;;;;8.97;4.40;;;13.70;83.80;;;;;;5035248;28;20488;-72
2021/04/05 08:55:40;;;;;;;10.10;4.77;;;13.70;84.20;;;;;;5032235;28;20516;-70
2021/04/05 08:58:09;;;;;;;10.13;5.10;;;13.50;84.50;;;;;;5041769;28;20847;-70
2021/04/05 09:00:40;;;;;;;16.20;5.27;;;13.30;84.90;;;;;;5036286;28;20518;-72
2021/04/05 09:03:09;;;;;;;9.10;5.17;;;13.10;84.60;;;;;;5030547;28;21027;-71
2021/04/05 09:05:42;;;;;;;16.67;5.57;;;12.50;84.20;;;;;;5030750;28;21011;-70
2021/04/05 09:08:11;;;;;;;10.90;5.30;;;12.30;85.90;;;;;;5031079;28;20540;-69
2021/04/05 09:10:48;;;;;;;8.60;4.90;;;12.30;84.80;;;;;;5030280;28;20477;-70
2021/04/05 09:13:20;;;;;;;8.07;4.20;;;12.30;86.60;;;;;;5044668;28;20519;-69
2021/04/05 09:16:20;;;;;;;10.80;5.03;;;12.50;83.00;;;;;;5040625;28;20270;-70
2021/04/05 09:19:16;;;;;;;10.73;4.27;;;12.50;82.00;;;;;;5047672;28;20479;-70
2021/04/05 09:22:07;;;;;;;13.83;4.20;;;12.60;81.70;;;;;;5045717;28;20495;-68
2021/04/05 09:25:09;;;;;;;8.33;4.70;;;12.60;79.80;;;;;;5042947;28;20447;-71
2021/04/05 09:27:57;;;;;;;8.73;4.10;;;12.50;78.20;;;;;;5045097;28;20475;-69
2021/04/05 09:31:08;;;;;;;9.50;4.13;;;12.50;78.80;;;;;;5045051;28;20440;-69
2021/04/05 09:33:57;;;;;;;12.23;4.03;;;12.50;77.60;;;;;;5036654;28;20540;-69
2021/04/05 09:36:43;;;;;;;10.77;4.23;;;12.40;76.50;;;;;;5048120;28;20452;-70
2021/04/05 09:39:41;;;;;;;8.33;4.50;;;12.40;75.10;;;;;;5047000;28;20547;-70
2021/04/05 09:42:37;;;;;;;11.07;4.80;;;12.50;75.90;;;;;;5044225;28;21001;-70
2021/04/05 09:45:14;;;;;;;9.70;4.63;;;12.80;74.70;;;;;;5046463;28;20479;-70
2021/04/05 09:48:32;;;;;;;5.70;4.03;;;12.80;73.50;;;;;;5046203;28;20444;-70
2021/04/05 09:51:27;;;;;;;8.53;4.00;;;13.00;76.00;;;;;;5040100;28;20997;-70
2021/04/05 09:54:03;;;;;;;8.57;4.90;;;13.30;74.40;;;;;;5044052;28;20433;-70
2021/04/05 09:56:35;;;;;;;7.30;4.10;;;13.30;72.60;;;;;;5048192;28;21200;-69
2021/04/05 09:59:07;;;;;;;14.67;4.60;;;13.20;70.70;;;;;;5047171;28;20457;-69
2021/04/05 10:01:36;;;;;;;7.90;3.90;;;13.30;71.10;;;;;;5045345;28;20484;-69
2021/04/05 10:04:07;;;;;;;7.37;4.10;;;13.20;70.70;;;;;;5044822;28;20472;-69
2021/04/05 10:06:36;;;;;;;10.70;3.20;;;13.10;70.60;;;;;;5042324;28;20476;-68
2021/04/05 10:09:04;;;;;;;7.97;4.67;;;13.20;69.60;;;;;;5045589;28;20531;-67
2021/04/05 10:11:33;;;;;;;6.77;4.53;;;13.20;68.70;;;;;;5046936;28;20464;-68
2021/04/05 10:14:03;;;;;;;8.43;3.47;;;13.10;70.60;;;;;;5040157;28;20535;-69
2021/04/05 10:16:31;;;;;;;7.60;3.50;;;13.30;68.00;;;;;;5037283;28;20498;-69
2021/04/05 10:19:01;;;;;;;7.27;3.83;;;13.20;67.90;;;;;;5049472;28;20496;-69
2021/04/05 10:21:29;;;;;;;9.53;3.77;;;13.30;66.20;;;;;;5049865;28;20488;-69
2021/04/05 10:23:57;;;;;;;6.47;3.37;;;13.20;64.50;;;;;;5049533;28;20471;-68
2021/04/05 10:26:29;;;;;;;6.20;3.27;;;13.30;63.00;;;;;;5038411;28;20477;-68
2021/04/05 10:28:56;;;;;;;11.37;3.97;;;13.30;63.20;;;;;;5047356;28;20436;-70
2021/04/05 10:31:25;;;;;;;5.93;3.23;;;13.40;64.90;;;;;;5050432;28;20463;-70
2021/04/05 10:34:00;;;;;;;7.80;3.83;;;13.30;61.20;;;;;;5049180;28;20498;-69
2021/04/05 10:36:27;;;;;;;8.17;3.77;;;13.40;61.90;;;;;;5050216;28;20534;-69
2021/04/05 10:38:54;;;;;;;6.20;2.97;;;13.60;61.80;;;;;;5050611;28;20443;-70
2021/04/05 10:41:24;;;;;;;5.80;4.57;;;13.70;60.10;;;;;;5044697;28;20556;-67
2021/04/05 10:43:52;;;;;;;10.40;5.50;;;13.60;62.20;;;;;;5050820;28;20484;-69
2021/04/05 10:46:22;;;;;;;6.63;3.90;;;13.50;59.80;;;;;;5047411;28;20479;-68
2021/04/05 10:48:52;;;;;;;7.43;3.00;;;13.60;60.70;;;;;;5040886;28;20539;-68
2021/04/05 10:51:22;;;;;;;6.00;3.50;;;13.80;61.10;;;;;;5042454;28;20479;-68
2021/04/05 10:53:58;;;;;;;9.27;3.90;;;14.00;60.00;;;;;;5050197;28;20521;-69
2021/04/05 10:56:28;;;;;;;6.63;3.60;;;13.90;59.90;;;;;;5046060;28;20531;-68
2021/04/05 10:59:00;;;;;;;11.90;4.43;;;13.70;60.90;;;;;;5030616;28;20448;-69
2021/04/05 11:01:27;;;;;;;10.27;3.80;;;13.70;61.30;;;;;;5030844;28;20614;-68
2021/04/05 11:03:55;;;;;;;6.80;3.97;;;13.70;63.00;;;;;;5030146;28;21215;-67
2021/04/05 11:06:23;;;;;;;7.63;4.07;;;13.50;66.10;;;;;;5030390;28;20477;-68
2021/04/05 11:08:52;;;;;;;9.83;4.63;;;13.20;67.40;;;;;;5029674;28;20449;-69
2021/04/05 11:11:23;;;;;;;12.73;5.27;;;13.10;68.40;;;;;;5030892;28;20465;-69
2021/04/05 11:13:53;;;;;;;7.80;5.03;;;13.20;70.40;;;;;;5042191;28;20860;-69
2021/04/05 11:16:21;;;;;;;8.23;4.93;;;13.00;71.00;;;;;;5050902;28;20440;-69
2021/04/05 11:18:51;;;;;;;5.90;4.30;;;12.80;72.40;;;;;;5050993;28;20942;-69
2021/04/05 11:21:19;;;;;;;10.27;5.83;;;12.80;73.10;;;;;;5044551;28;20474;-67
2021/04/05 11:23:47;;;;;;;16.40;6.63;;;12.90;75.90;;;;;;5043313;28;20457;-68
2021/04/05 11:26:14;;;;;;;11.83;6.40;;;12.80;77.40;;;;;;5048242;28;20625;-70
2021/04/05 11:28:42;;;;;;;17.00;7.13;;;12.80;78.90;;;;;;5051182;28;20891;-69
2021/04/05 11:31:15;;;;;;;10.17;6.93;;;12.60;81.10;;;;;;5051042;28;20472;-69
2021/04/05 11:33:48;;;;;;;16.20;7.80;;;12.40;82.20;;;;;;5045154;28;20460;-70
2021/04/05 11:36:15;;;;;;;9.63;6.33;;;12.50;81.70;;;;;;5031681;28;20599;-69
2021/04/05 11:38:46;;;;;;;19.77;7.70;;;12.60;81.30;;;;;;5032048;28;20602;-69
2021/04/05 11:41:14;;;;;;;10.90;6.10;;;12.60;79.70;;;;;;5031914;28;20998;-69
2021/04/05 11:43:47;;;;;;;11.03;7.50;;;12.40;78.70;;;;;;5031367;28;20930;-70
2021/04/05 11:46:16;;;;;;;13.47;7.17;;;12.30;78.50;;;;;;5031909;28;20568;-69
2021/04/05 11:48:43;;;;;;;13.90;5.37;;;12.30;78.30;;;;;;5031341;28;21054;-69
2021/04/05 11:51:12;;;;;;;11.63;6.77;;;12.30;78.50;;;;;;5031000;28;20979;-69
2021/04/05 11:53:47;;;;;;;11.07;6.70;;;12.20;79.60;;;;;;5031178;28;20803;-70
2021/04/05 11:56:21;;;;;;;13.40;7.07;;;12.30;80.00;;;;;;5033672;28;20446;-68
2021/04/05 11:58:58;;;;;;;12.37;9.27;;;12.40;80.80;;;;;;5045665;28;20548;-68
2021/04/05 12:01:26;;;;;;;11.63;6.30;;;12.50;82.40;;;;;;5047331;28;20471;-67
2021/04/05 12:03:58;;;;;;;18.57;8.10;;;12.30;81.10;;;;;;5046733;28;20463;-67
2021/04/05 12:06:35;;;;;;;12.00;8.03;;;12.20;82.80;;;;;;5045549;28;20484;-67
2021/04/05 12:09:07;;;;;;;16.33;9.00;;;12.30;85.10;;;;;;5044710;28;20523;-69
2021/04/05 12:11:41;;;;;;;12.80;9.40;;;12.20;87.50;;;;;;5047338;28;20471;-66
2021/04/05 12:14:11;;;;;;;14.17;9.33;;;12.10;88.80;;;;;;5047310;28;20617;-71
2021/04/05 12:16:40;;;;;;;15.83;8.63;;;12.10;90.00;;;;;;5049117;28;20941;-68
2021/04/05 12:19:07;;;;;;;13.83;8.07;;;12.20;89.00;;;;;;5045739;28;20437;-68
2021/04/05 12:21:37;;;;;;;22.53;10.20;;;12.00;89.20;;;;;;5043372;28;20461;-68
2021/04/05 12:24:05;;;;;;;14.57;10.10;;;11.90;90.60;;;;;;5046872;28;20460;-68
2021/04/05 12:26:34;;;;;;;18.97;8.67;;;11.80;90.60;;;;;;5042591;28;20553;-68
2021/04/05 12:29:04;;;;;;;19.23;10.80;;;11.70;90.80;;;;;;5048847;28;20487;-68
2021/04/05 12:31:31;;;;;;;14.10;9.63;;;11.60;90.60;;;;;;5044448;28;20559;-69
2021/04/05 12:34:08;;;;;;;16.30;9.03;;;11.40;90.80;;;;;;5047322;28;20515;-68
2021/04/05 12:36:36;;;;;;;19.90;9.43;;;11.40;90.90;;;;;;5044395;28;21038;-68
2021/04/05 12:39:06;;;;;;;17.90;10.70;;;11.30;91.30;;;;;;5042441;28;20916;-69
2021/04/05 12:41:36;;;;;;;15.50;9.67;;;11.10;91.20;;;;;;5049696;28;20555;-68
2021/04/05 12:44:04;;;;;;;17.37;10.50;;;11.10;91.70;;;;;;5049432;28;20448;-68
2021/04/05 12:46:31;;;;;;;22.73;11.60;;;11.00;91.80;;;;;;5046650;28;20541;-68
2021/04/05 12:49:00;;;;;;;15.43;10.03;;;11.00;91.70;;;;;;5048010;28;20436;-70
2021/04/05 12:51:28;;;;;;;22.93;12.47;;;10.90;92.00;;;;;;5034277;28;21194;-68
2021/04/05 12:54:01;;;;;;;18.60;10.17;;;11.00;92.10;;;;;;5034075;28;20978;-70
2021/04/05 12:56:28;;;;;;;18.83;10.33;;;11.10;92.00;;;;;;5044896;28;21159;-68
2021/04/05 12:58:56;;;;;;;21.97;11.43;;;11.20;91.80;;;;;;5039805;28;20454;-67
2021/04/05 13:01:34;;;;;;;23.63;10.67;;;11.20;91.70;;;;;;5047558;28;20469;-68
2021/04/05 13:04:04;;;;;;;14.50;10.10;;;11.40;91.60;;;;;;5043798;28;20542;-68
2021/04/05 13:06:41;;;;;;;16.00;9.90;;;11.40;91.80;;;;;;5043982;28;20982;-68
2021/04/05 13:09:12;;;;;;;17.10;11.30;;;11.50;91.30;;;;;;5044981;28;20436;-68
2021/04/05 13:11:45;;;;;;;17.80;11.17;;;11.50;91.60;;;;;;5038454;28;20456;-68
2021/04/05 13:14:16;;;;;;;20.27;10.67;;;11.50;91.80;;;;;;5039737;28;20535;-68